createdAt,value
2018-07-01T00:04:31.168Z,17.30
2018-07-01T00:09:33.688Z,17.20
2018-07-01T00:14:36.203Z,17.20
2018-07-01T00:19:38.740Z,17.10
2018-07-01T00:24:42.027Z,16.90
2018-07-01T00:29:44.548Z,16.90
2018-07-01T00:34:47.075Z,16.80
2018-07-01T00:39:49.612Z,16.70
2018-07-01T00:44:52.124Z,16.70
2018-07-01T00:49:54.661Z,16.60
2018-07-01T00:54:57.176Z,16.50
2018-07-01T00:59:59.691Z,16.40
2018-07-01T01:05:02.224Z,16.30
2018-07-01T01:10:04.732Z,16.30
2018-07-01T01:15:07.243Z,16.20
2018-07-01T01:20:09.762Z,16.10
2018-07-01T01:25:12.277Z,16.00
2018-07-01T01:30:14.800Z,16.00
2018-07-01T01:35:17.355Z,15.90
2018-07-01T01:40:19.878Z,15.80
2018-07-01T01:45:22.404Z,15.70
2018-07-01T01:50:24.937Z,15.60
2018-07-01T01:55:27.451Z,15.50
2018-07-01T02:00:29.980Z,15.50
2018-07-01T02:05:32.484Z,15.40
2018-07-01T02:10:35.008Z,15.30
2018-07-01T02:15:37.527Z,15.20
2018-07-01T02:20:40.051Z,15.10
2018-07-01T02:25:42.604Z,15.00
2018-07-01T02:30:45.365Z,14.90
2018-07-01T02:35:47.876Z,14.90
2018-07-01T02:40:50.399Z,14.80
2018-07-01T02:45:53.760Z,14.60
2018-07-01T02:50:56.368Z,14.60
2018-07-01T02:55:59.516Z,14.60
2018-07-01T03:01:02.068Z,14.50
2018-07-01T03:06:04.627Z,14.40
2018-07-01T03:11:07.152Z,14.30
2018-07-01T03:16:09.685Z,14.30
2018-07-01T03:21:12.277Z,14.20
2018-07-01T03:26:14.884Z,14.20
2018-07-01T03:31:17.400Z,14.10
2018-07-01T03:36:19.927Z,14.00
2018-07-01T03:41:22.444Z,14.00
2018-07-01T03:46:24.962Z,13.90
2018-07-01T03:51:27.472Z,13.90
2018-07-01T03:56:30.007Z,13.80
2018-07-01T04:01:32.526Z,13.80
2018-07-01T04:06:35.055Z,13.80
2018-07-01T04:11:37.563Z,13.70
2018-07-01T04:16:40.080Z,13.70
2018-07-01T04:21:42.616Z,13.70
2018-07-01T04:26:45.890Z,13.70
2018-07-01T04:31:48.432Z,13.60
2018-07-01T04:36:51.717Z,13.70
2018-07-01T04:41:54.235Z,13.70
2018-07-01T04:46:56.752Z,13.70
2018-07-01T04:51:59.263Z,13.80
2018-07-01T04:57:01.790Z,13.90
2018-07-01T05:02:04.344Z,14.00
2018-07-01T05:07:06.833Z,14.10
2018-07-01T05:12:09.371Z,14.30
2018-07-01T05:17:11.936Z,14.50
2018-07-01T05:22:14.424Z,14.60
2018-07-01T05:27:17.708Z,15.00
2018-07-01T05:32:20.221Z,15.00
2018-07-01T05:37:22.743Z,15.30
2018-07-01T05:42:25.260Z,15.50
2018-07-01T05:47:27.787Z,15.80
2018-07-01T05:52:30.303Z,16.10
2018-07-01T05:57:32.831Z,16.40
2018-07-01T06:02:35.343Z,16.90
2018-07-01T06:07:37.860Z,17.30
2018-07-01T06:12:40.391Z,17.70
2018-07-01T06:17:43.082Z,18.10
2018-07-01T06:22:45.590Z,18.50
2018-07-01T06:27:48.112Z,18.80
2018-07-01T06:32:50.668Z,19.10
2018-07-01T06:37:53.163Z,19.40
2018-07-01T06:42:55.689Z,19.70
2018-07-01T06:47:58.216Z,20.00
2018-07-01T06:53:00.735Z,20.40
2018-07-01T06:58:03.260Z,20.60
2018-07-01T07:03:05.788Z,21.00
2018-07-01T07:08:08.312Z,21.20
2018-07-01T07:13:11.151Z,21.40
2018-07-01T07:18:13.660Z,21.80
2018-07-01T07:23:16.177Z,22.20
2018-07-01T07:28:18.748Z,22.30
2018-07-01T07:33:21.259Z,22.50
2018-07-01T07:38:23.843Z,22.80
2018-07-01T07:43:26.360Z,23.10
2018-07-01T07:48:28.944Z,23.40
2018-07-01T07:53:31.548Z,23.50
2018-07-01T07:58:34.075Z,23.70
2018-07-01T08:03:36.635Z,23.90
2018-07-01T08:08:39.151Z,24.20
2018-07-01T08:13:41.741Z,24.40
2018-07-01T08:18:44.263Z,24.50
2018-07-01T08:23:46.835Z,24.70
2018-07-01T08:28:49.357Z,24.80
2018-07-01T08:33:51.932Z,25.00
2018-07-01T08:38:54.450Z,25.20
2018-07-01T08:43:57.648Z,25.40
2018-07-01T08:49:00.239Z,25.60
2018-07-01T08:54:02.840Z,25.70
2018-07-01T08:59:05.352Z,25.90
2018-07-01T09:04:08.148Z,25.90
2018-07-01T09:09:10.747Z,26.00
2018-07-01T09:14:13.264Z,26.10
2018-07-01T09:19:15.852Z,26.30
2018-07-01T09:24:18.367Z,26.40
2018-07-01T09:29:20.888Z,26.50
2018-07-01T09:34:23.447Z,26.70
2018-07-01T09:39:27.472Z,27.00
2018-07-01T09:44:29.987Z,26.90
2018-07-01T09:49:32.501Z,27.00
2018-07-01T09:54:35.016Z,27.20
2018-07-01T09:59:37.563Z,27.20
2018-07-01T10:04:40.164Z,27.30
2018-07-01T10:09:42.687Z,27.30
2018-07-01T10:14:45.208Z,27.40
2018-07-01T10:19:47.724Z,27.40
2018-07-01T10:24:50.259Z,27.60
2018-07-01T10:29:52.860Z,27.60
2018-07-01T10:34:55.933Z,27.70
2018-07-01T10:39:58.951Z,27.90
2018-07-01T10:45:02.058Z,28.00
2018-07-01T10:50:04.971Z,28.00
2018-07-01T10:55:08.042Z,28.10
2018-07-01T11:00:12.801Z,28.20
2018-07-01T11:05:15.574Z,28.40
2018-07-01T11:10:19.815Z,28.50
2018-07-01T11:15:23.497Z,28.50
2018-07-01T11:20:26.573Z,28.60
2018-07-01T11:25:29.224Z,28.60
2018-07-01T11:30:33.089Z,28.70
2018-07-01T11:35:36.257Z,28.70
2018-07-01T11:40:39.608Z,28.80
2018-07-01T11:45:43.453Z,28.90
2018-07-01T11:50:46.151Z,29.00
2018-07-01T11:55:48.960Z,29.10
2018-07-01T12:00:53.026Z,29.20
2018-07-01T12:05:56.680Z,29.20
2018-07-01T12:10:59.596Z,29.20
2018-07-01T12:16:03.292Z,29.30
2018-07-01T12:21:07.112Z,29.30
2018-07-01T12:26:10.309Z,29.30
2018-07-01T12:31:12.864Z,29.30
2018-07-01T12:36:15.419Z,29.40
2018-07-01T12:41:18.437Z,29.40
2018-07-01T12:46:21.851Z,29.40
2018-07-01T12:51:25.713Z,29.50
2018-07-01T12:56:29.116Z,29.40
2018-07-01T13:01:31.663Z,29.50
2018-07-01T13:06:35.045Z,29.40
2018-07-01T13:11:38.032Z,29.40
2018-07-01T13:16:41.056Z,29.40
2018-07-01T13:21:43.671Z,29.40
2018-07-01T13:26:46.271Z,29.30
2018-07-01T13:31:48.793Z,29.30
2018-07-01T13:36:51.312Z,29.20
2018-07-01T13:41:53.868Z,29.20
2018-07-01T13:46:56.468Z,29.20
2018-07-01T13:51:59.095Z,29.20
2018-07-01T13:57:03.924Z,29.10
2018-07-01T14:02:08.082Z,29.00
2018-07-01T14:07:10.615Z,29.00
2018-07-01T14:12:13.153Z,29.00
2018-07-01T14:17:15.668Z,28.90
2018-07-01T14:22:18.624Z,28.80
2018-07-01T14:27:21.669Z,28.70
2018-07-01T14:32:25.460Z,28.70
2018-07-01T14:37:29.538Z,28.60
2018-07-01T14:42:34.214Z,28.40
2018-07-01T14:47:37.619Z,28.40
2018-07-01T14:52:40.981Z,28.30
2018-07-01T14:57:43.729Z,28.20
2018-07-01T15:02:47.315Z,28.20
2018-07-01T15:07:53.015Z,28.10
2018-07-01T15:12:56.366Z,28.00
2018-07-01T15:17:59.373Z,28.00
2018-07-01T15:23:02.567Z,27.90
2018-07-01T15:28:05.148Z,27.80
2018-07-01T15:33:08.403Z,27.70
2018-07-01T15:38:11.562Z,27.60
2018-07-01T15:43:14.557Z,27.50
2018-07-01T15:48:17.789Z,27.40
2018-07-01T15:53:21.479Z,27.40
2018-07-01T15:58:24.383Z,27.30
2018-07-01T16:03:27.841Z,27.30
2018-07-01T16:08:30.451Z,27.20
2018-07-01T16:13:34.789Z,27.20
2018-07-01T16:18:41.157Z,27.10
2018-07-01T16:23:44.066Z,27.10
2018-07-01T16:28:48.723Z,26.90
2018-07-01T16:33:51.632Z,26.90
2018-07-01T16:38:54.513Z,26.80
2018-07-01T16:43:58.323Z,26.70
2018-07-01T16:49:02.470Z,26.60
2018-07-01T16:54:05.729Z,26.50
2018-07-01T16:59:09.465Z,26.40
2018-07-01T17:04:11.978Z,26.30
2018-07-01T17:09:15.844Z,26.20
2018-07-01T17:14:19.332Z,26.00
2018-07-01T17:19:22.680Z,26.00
2018-07-01T17:24:25.557Z,25.90
2018-07-01T17:29:28.921Z,25.70
2018-07-01T17:34:33.576Z,25.40
2018-07-01T17:39:36.308Z,25.40
2018-07-01T17:44:40.045Z,25.30
2018-07-01T17:49:43.552Z,25.10
2018-07-01T17:54:46.199Z,25.00
2018-07-01T17:59:49.739Z,24.80
2018-07-01T18:04:53.972Z,24.60
2018-07-01T18:09:56.801Z,24.50
2018-07-01T18:14:59.459Z,24.30
2018-07-01T18:20:01.965Z,24.10
2018-07-01T18:25:10.813Z,23.80
2018-07-01T18:30:08.753Z,23.70
2018-07-01T18:35:11.549Z,23.60
2018-07-01T18:40:14.433Z,23.50
2018-07-01T18:45:18.667Z,23.40
2018-07-01T18:50:22.247Z,23.30
2018-07-01T18:55:25.687Z,23.10
2018-07-01T19:00:29.000Z,22.80
2018-07-01T19:05:31.545Z,22.80
2018-07-01T19:10:34.076Z,22.70
2018-07-01T19:15:37.356Z,22.60
2018-07-01T19:20:39.891Z,22.50
2018-07-01T19:25:42.468Z,22.30
2018-07-01T19:30:45.022Z,22.20
2018-07-01T19:35:48.328Z,21.90
2018-07-01T19:40:50.872Z,21.90
2018-07-01T19:45:53.399Z,21.80
2018-07-01T19:50:55.963Z,21.60
2018-07-01T19:55:58.571Z,21.50
2018-07-01T20:01:01.168Z,21.40
2018-07-01T20:06:03.713Z,21.30
2018-07-01T20:11:06.260Z,21.10
2018-07-01T20:16:08.808Z,21.00
2018-07-01T20:21:11.360Z,20.90
2018-07-01T20:26:13.893Z,20.80
2018-07-01T20:31:16.456Z,20.60
2018-07-01T20:36:18.973Z,20.60
2018-07-01T20:41:21.547Z,20.40
2018-07-01T20:46:24.218Z,20.30
2018-07-01T20:51:26.815Z,20.20
2018-07-01T20:56:30.110Z,20.00
2018-07-01T21:01:32.676Z,20.00
2018-07-01T21:06:35.217Z,19.90
2018-07-01T21:11:37.829Z,19.80
2018-07-01T21:16:40.344Z,19.70
2018-07-01T21:21:42.971Z,19.60
2018-07-01T21:26:46.531Z,19.50
2018-07-01T21:31:49.588Z,19.40
2018-07-01T21:36:53.004Z,19.30
2018-07-01T21:41:55.752Z,19.20
2018-07-01T21:46:59.072Z,19.10
2018-07-01T21:52:02.071Z,19.00
2018-07-01T21:57:05.151Z,18.90
2018-07-01T22:02:07.731Z,18.80
2018-07-01T22:07:10.250Z,18.70
2018-07-01T22:18:00.034Z,18.40
2018-07-01T22:23:03.189Z,18.30
2018-07-01T22:28:05.790Z,18.20
2018-07-01T22:33:08.390Z,18.10
2018-07-01T22:38:10.903Z,18.00
2018-07-01T22:43:13.442Z,17.90
2018-07-01T22:48:15.983Z,17.80
2018-07-01T22:53:18.590Z,17.70
2018-07-01T22:58:21.019Z,17.60
2018-07-01T23:03:23.556Z,17.40
2018-07-01T23:08:26.172Z,17.30
2018-07-01T23:13:28.781Z,17.20
2018-07-01T23:18:31.296Z,17.10
2018-07-01T23:23:33.876Z,17.00
2018-07-01T23:28:36.396Z,16.90
2018-07-01T23:33:38.939Z,16.80
2018-07-01T23:38:42.667Z,16.60
2018-07-01T23:43:46.020Z,16.50
2018-07-01T23:48:48.540Z,16.50
2018-07-01T23:53:51.058Z,16.40
2018-07-01T23:58:53.583Z,16.30
